Time;durP1;ratioP1;P1;durP2;ratioP2;P2;SDS_P1;SDS_P2;PMS_P1;PMS_P2;Temp;Humidity;BMP_temperature;BMP_pressure;BME280_temperature;BME280_humidity;BME280_pressure;Samples;Min_cycle;Max_cycle;Signal;HPM_P1;HPM_P2
2022/10/01 00:02:24;;;;;;;16.52;11.80;;;;;;;10.53;73.82;100354.41;5036622;28;20425;-83
2022/10/01 00:04:51;;;;;;;14.50;9.80;;;;;;;10.51;74.22;100355.44;5039607;28;20061;-84
2022/10/01 00:07:18;;;;;;;14.40;10.95;;;;;;;10.50;74.54;100357.25;5045568;28;20060;-84
2022/10/01 00:09:46;;;;;;;14.63;8.90;;;;;;;10.47;74.65;100346.91;5045047;28;20109;-84
2022/10/01 00:12:14;;;;;;;12.95;10.00;;;;;;;10.45;75.08;100347.94;5036003;28;20095;-82
2022/10/01 00:14:43;;;;;;;12.90;8.73;;;;;;;10.41;75.04;100336.75;5041888;28;20080;-80
2022/10/01 00:17:10;;;;;;;15.60;9.35;;;;;;;10.41;75.19;100342.03;5038510;28;20059;-84
2022/10/01 00:19:37;;;;;;;11.20;8.77;;;;;;;10.41;75.71;100344.66;5035750;28;20058;-85
2022/10/01 00:22:05;;;;;;;11.52;9.48;;;;;;;10.37;76.75;100332.63;5027459;28;20040;-84
2022/10/01 00:24:32;;;;;;;13.43;8.93;;;;;;;10.34;76.49;100332.81;5033363;28;20064;-84
2022/10/01 00:27:00;;;;;;;15.02;8.60;;;;;;;10.32;76.59;100339.97;5032970;28;20422;-83
2022/10/01 00:29:27;;;;;;;11.40;8.40;;;;;;;10.32;76.50;100339.97;5034752;28;20080;-82
2022/10/01 00:31:55;;;;;;;13.52;9.38;;;;;;;10.26;75.72;100338.53;5016414;28;20111;-84
2022/10/01 00:34:27;;;;;;;12.35;8.43;;;;;;;10.18;75.37;100338.16;5036094;28;20059;-84
2022/10/01 00:36:54;;;;;;;12.98;9.02;;;;;;;10.12;75.19;100339.38;5034209;28;20056;-87
2022/10/01 00:39:24;;;;;;;11.15;8.13;;;;;;;10.10;75.44;100330.75;5017221;28;20045;-84
2022/10/01 00:41:51;;;;;;;12.35;9.35;;;;;;;10.12;75.40;100328.84;5033253;28;20128;-84
2022/10/01 00:44:34;;;;;;;14.15;8.98;;;;;;;10.12;75.56;100328.00;5017398;28;20053;-83
2022/10/01 00:47:15;;;;;;;11.80;8.18;;;;;;;10.12;74.87;100322.75;5030020;28;20399;-84
2022/10/01 00:49:42;;;;;;;9.02;7.55;;;;;;;10.07;74.41;100320.41;5016813;28;20061;-83
2022/10/01 00:52:17;;;;;;;11.18;9.00;;;;;;;10.05;74.54;100314.41;5021971;28;20053;-85
2022/10/01 00:54:52;;;;;;;11.90;8.23;;;;;;;10.05;74.88;100322.28;5033449;28;20140;-83
2022/10/01 00:57:23;;;;;;;12.02;7.90;;;;;;;10.06;75.33;100315.25;5037207;28;20053;-84
2022/10/01 00:59:53;;;;;;;11.30;8.50;;;;;;;10.03;75.06;100310.16;5039863;28;20060;-83
2022/10/01 01:02:21;;;;;;;11.55;9.00;;;;;;;10.02;75.20;100314.59;5025978;28;20307;-83
2022/10/01 01:04:48;;;;;;;13.70;8.95;;;;;;;10.01;75.80;100312.91;5038843;28;20111;-82
2022/10/01 01:07:16;;;;;;;12.43;9.02;;;;;;;9.99;76.63;100311.28;5048824;28;20060;-81
2022/10/01 01:09:46;;;;;;;12.30;8.32;;;;;;;10.01;77.51;100307.63;5049526;28;20029;-82
2022/10/01 01:12:21;;;;;;;11.93;8.38;;;;;;;9.98;78.26;100315.72;5042766;28;20037;-83
2022/10/01 01:15:13;;;;;;;13.15;8.95;;;;;;;9.95;78.73;100304.53;5043362;28;20046;-83
2022/10/01 01:18:04;;;;;;;12.95;9.32;;;;;;;9.96;79.06;100301.81;5015552;28;20041;-82
2022/10/01 01:20:54;;;;;;;10.57;8.30;;;;;;;9.95;78.76;100302.78;5037102;28;20210;-85
2022/10/01 01:24:11;;;;;;;11.40;7.80;;;;;;;9.91;79.09;100298.63;5042446;28;20410;-82
2022/10/01 01:27:07;;;;;;;12.60;9.73;;;;;;;9.90;79.34;100300.38;5026915;28;20514;-82
2022/10/01 01:29:42;;;;;;;12.13;7.95;;;;;;;9.89;80.08;100297.88;5034859;28;20088;-83
2022/10/01 01:32:41;;;;;;;10.80;8.48;;;;;;;9.87;79.93;100291.88;5016123;28;20033;-83
2022/10/01 01:35:10;;;;;;;12.05;7.60;;;;;;;9.88;80.50;100286.50;4993177;28;20052;-83
2022/10/01 01:37:41;;;;;;;10.40;8.18;;;;;;;9.86;80.88;100292.78;5016181;28;20059;-82
2022/10/01 01:40:10;;;;;;;12.65;8.55;;;;;;;9.85;80.73;100288.47;5025773;28;20160;-84
2022/10/01 01:42:40;;;;;;;10.55;8.50;;;;;;;9.81;80.86;100281.72;5016428;28;20054;-82
2022/10/01 01:45:10;;;;;;;12.98;8.85;;;;;;;9.84;80.88;100279.75;4997552;28;20042;-85
2022/10/01 01:47:40;;;;;;;12.25;8.18;;;;;;;9.83;81.51;100275.44;4998981;28;20112;-84
2022/10/01 01:50:08;;;;;;;9.45;8.25;;;;;;;9.84;81.62;100274.47;5032197;28;20053;-84
2022/10/01 01:52:35;;;;;;;12.38;8.18;;;;;;;9.79;81.83;100273.94;5019203;28;20059;-83
2022/10/01 01:55:06;;;;;;;9.48;7.82;;;;;;;9.78;81.91;100266.16;5015327;28;20056;-83
2022/10/01 01:57:37;;;;;;;9.82;7.68;;;;;;;9.77;81.74;100264.44;5033236;28;20065;-83
2022/10/01 02:00:05;;;;;;;10.85;8.05;;;;;;;9.73;82.53;100261.16;5028252;28;20045;-84
2022/10/01 02:02:35;;;;;;;14.73;8.18;;;;;;;9.73;81.84;100260.31;5033835;28;20083;-83
2022/10/01 02:05:11;;;;;;;12.35;8.27;;;;;;;9.69;81.79;100264.06;5032788;28;20041;-84
2022/10/01 02:07:53;;;;;;;9.73;8.07;;;;;;;9.71;82.83;100272.69;5037060;28;20061;-83
2022/10/01 02:10:32;;;;;;;13.18;8.75;;;;;;;9.66;81.82;100266.88;5015104;28;20052;-82
2022/10/01 02:13:22;;;;;;;10.50;8.18;;;;;;;9.63;82.17;100263.47;5031193;28;20063;-83
2022/10/01 02:16:17;;;;;;;10.57;8.00;;;;;;;9.62;82.47;100261.81;5026075;28;20108;-85
2022/10/01 02:18:52;;;;;;;11.15;8.43;;;;;;;9.64;83.33;100267.81;5027894;28;20061;-84
2022/10/01 02:21:46;;;;;;;10.97;8.70;;;;;;;9.61;83.41;100260.13;5032368;28;20607;-82
2022/10/01 02:24:33;;;;;;;12.27;9.30;;;;;;;9.58;82.73;100257.66;5005374;28;20646;-85
2022/10/01 02:27:03;;;;;;;14.02;8.90;;;;;;;9.58;83.56;100260.28;5029584;28;20041;-82
2022/10/01 02:29:31;;;;;;;12.20;8.57;;;;;;;9.57;83.58;100266.50;5015512;28;20099;-83
2022/10/01 02:31:59;;;;;;;13.98;8.48;;;;;;;9.53;83.86;100267.63;4997957;28;20057;-84
2022/10/01 02:34:28;;;;;;;11.32;8.35;;;;;;;9.51;83.57;100266.88;5031972;28;20068;-83
2022/10/01 02:36:57;;;;;;;12.73;10.00;;;;;;;9.50;83.59;100261.69;5023983;28;20156;-83
2022/10/01 02:39:26;;;;;;;11.32;9.60;;;;;;;9.46;84.63;100260.22;5016527;28;20067;-86
2022/10/01 02:41:54;;;;;;;13.55;9.23;;;;;;;9.45;84.05;100261.97;5034186;28;20057;-83
2022/10/01 02:44:26;;;;;;;9.98;8.40;;;;;;;9.47;84.69;100261.91;5032618;28;20057;-84
2022/10/01 02:47:02;;;;;;;12.00;8.75;;;;;;;9.45;84.85;100253.25;5036476;28;20045;-83
2022/10/01 02:49:30;;;;;;;14.07;9.50;;;;;;;9.42;84.83;100256.91;5038176;28;20045;-84
2022/10/01 02:52:05;;;;;;;12.63;9.30;;;;;;;9.41;85.18;100252.63;5036481;28;20092;-84
2022/10/01 02:54:44;;;;;;;11.88;8.98;;;;;;;9.43;84.81;100250.72;5037481;28;20061;-82
2022/10/01 02:57:23;;;;;;;12.50;9.43;;;;;;;9.45;84.98;100246.22;5025030;28;20068;-85
2022/10/01 02:59:51;;;;;;;12.57;8.88;;;;;;;9.43;85.41;100245.47;5036297;28;20117;-84
2022/10/01 03:02:19;;;;;;;13.20;8.90;;;;;;;9.41;84.74;100243.84;5015393;28;20069;-85
2022/10/01 03:04:47;;;;;;;11.52;10.07;;;;;;;9.38;85.38;100251.00;5036309;28;20057;-83
2022/10/01 03:07:17;;;;;;;11.30;8.68;;;;;;;9.36;85.55;100247.59;5018217;28;20122;-83
2022/10/01 03:09:44;;;;;;;10.88;8.90;;;;;;;9.37;84.90;100243.22;5021297;28;20132;-83
2022/10/01 03:12:11;;;;;;;11.55;8.10;;;;;;;9.33;84.95;100244.34;5033338;28;20538;-82
2022/10/01 03:14:39;;;;;;;10.93;8.65;;;;;;;9.32;85.21;100235.63;5035658;28;20049;-84
2022/10/01 03:17:07;;;;;;;11.07;9.05;;;;;;;9.30;84.98;100228.75;5026954;28;20045;-82
2022/10/01 03:19:42;;;;;;;12.90;9.07;;;;;;;9.25;85.19;100230.81;5033017;28;20147;-85
2022/10/01 03:22:12;;;;;;;13.75;9.23;;;;;;;9.26;84.65;100222.81;5035636;28;20073;-83
2022/10/01 03:24:42;;;;;;;9.95;8.15;;;;;;;9.22;84.82;100223.09;5038440;28;20053;-82
2022/10/01 03:27:10;;;;;;;11.10;8.43;;;;;;;9.25;84.89;100220.31;5019995;28;20065;-83
2022/10/01 03:29:37;;;;;;;9.65;7.82;;;;;;;9.22;85.20;100213.44;5022759;28;20061;-85
2022/10/01 03:32:04;;;;;;;10.45;8.98;;;;;;;9.23;84.91;100219.53;5045813;28;20473;-84
2022/10/01 03:34:31;;;;;;;12.13;8.68;;;;;;;9.20;84.48;100214.47;5016588;28;20407;-84
2022/10/01 03:36:59;;;;;;;11.20;8.48;;;;;;;9.15;83.74;100206.88;5015127;28;20060;-85
2022/10/01 03:39:26;;;;;;;9.23;7.97;;;;;;;9.17;84.48;100209.41;5034915;28;20283;-83
2022/10/01 03:41:55;;;;;;;9.82;8.30;;;;;;;9.16;84.73;100203.31;5016662;28;20390;-84
2022/10/01 03:44:22;;;;;;;10.18;8.18;;;;;;;9.22;85.18;100204.72;5034529;28;20067;-82
2022/10/01 03:46:53;;;;;;;12.85;8.60;;;;;;;9.19;84.45;100199.66;5034454;28;20056;-84
2022/10/01 03:49:23;;;;;;;10.57;8.60;;;;;;;9.18;85.35;100200.59;5038423;28;20049;-85
2022/10/01 03:51:51;;;;;;;10.13;8.57;;;;;;;9.15;85.39;100192.91;5035413;28;20409;-84
2022/10/01 03:54:19;;;;;;;9.90;8.50;;;;;;;9.17;84.64;100191.03;5036844;28;20081;-82
2022/10/01 03:56:47;;;;;;;9.70;7.97;;;;;;;9.13;84.51;100196.44;5032856;28;20471;-85
2022/10/01 03:59:14;;;;;;;10.20;8.32;;;;;;;9.17;84.62;100183.16;5042451;28;20053;-84
2022/10/01 04:01:42;;;;;;;11.30;8.48;;;;;;;9.13;85.32;100188.56;5023291;28;20065;-84
2022/10/01 04:04:09;;;;;;;11.25;8.20;;;;;;;9.12;85.34;100183.41;5054546;28;20051;-83
2022/10/01 04:06:36;;;;;;;11.18;8.32;;;;;;;9.12;85.54;100181.63;5047748;28;20122;-83
2022/10/01 04:09:04;;;;;;;10.90;8.10;;;;;;;9.10;85.54;100191.41;5006636;28;20060;-84
2022/10/01 04:11:31;;;;;;;10.60;7.70;;;;;;;9.06;85.58;100189.06;5035195;28;20520;-84
2022/10/01 04:13:58;;;;;;;12.57;8.20;;;;;;;9.03;85.75;100183.97;5041895;28;20141;-85
2022/10/01 04:16:26;;;;;;;11.85;7.60;;;;;;;9.01;85.65;100178.81;5027808;28;20041;-83
2022/10/01 04:18:53;;;;;;;9.75;7.25;;;;;;;9.03;85.45;100173.47;5035187;28;20109;-84
2022/10/01 04:21:20;;;;;;;10.38;7.50;;;;;;;9.00;85.37;100177.09;5014370;28;20042;-83
2022/10/01 04:23:49;;;;;;;9.95;7.70;;;;;;;9.00;85.41;100171.00;5017665;28;20164;-83
2022/10/01 04:26:17;;;;;;;10.70;7.20;;;;;;;8.99;85.27;100167.56;5034889;28;20051;-85
2022/10/01 04:28:45;;;;;;;10.80;7.65;;;;;;;9.00;85.77;100168.38;5036179;28;20053;-84
2022/10/01 04:31:25;;;;;;;9.25;6.88;;;;;;;8.99;85.12;100166.72;5007866;28;20058;-84
2022/10/01 04:33:55;;;;;;;9.23;7.35;;;;;;;8.96;85.64;100164.25;5018146;28;20085;-83
2022/10/01 04:36:23;;;;;;;12.50;7.25;;;;;;;8.96;85.80;100159.88;5003421;28;20061;-82
2022/10/01 04:38:52;;;;;;;13.43;8.20;;;;;;;8.96;85.76;100166.88;5036863;28;20511;-83
2022/10/01 04:41:25;;;;;;;9.07;7.00;;;;;;;8.95;85.89;100165.19;5015582;28;20053;-84
2022/10/01 04:43:52;;;;;;;10.57;7.30;;;;;;;8.93;85.66;100169.72;5031135;28;20104;-83
2022/10/01 04:46:19;;;;;;;10.18;6.85;;;;;;;8.90;85.83;100165.47;5017990;28;20367;-83
2022/10/01 04:48:48;;;;;;;9.00;7.38;;;;;;;8.90;86.43;100162.84;5002334;28;20051;-84
2022/10/01 04:51:16;;;;;;;7.78;6.55;;;;;;;8.88;85.40;100162.94;5029630;28;20441;-83
2022/10/01 04:53:43;;;;;;;9.88;7.35;;;;;;;8.88;86.12;100168.19;5033677;28;20046;-82
2022/10/01 04:56:10;;;;;;;14.05;7.20;;;;;;;8.87;85.94;100153.38;5033874;28;20119;-84
2022/10/01 04:58:38;;;;;;;8.10;6.75;;;;;;;8.85;86.11;100157.03;5034128;28;20056;-83
2022/10/01 05:01:05;;;;;;;9.80;6.53;;;;;;;8.85;86.10;100157.03;5032382;28;20061;-83
2022/10/01 05:03:33;;;;;;;9.45;6.65;;;;;;;8.88;86.41;100151.59;5010340;28;20053;-85
2022/10/01 05:06:00;;;;;;;8.07;6.28;;;;;;;8.87;86.38;100149.88;5031842;28;20051;-84
2022/10/01 05:08:28;;;;;;;8.45;6.00;;;;;;;8.91;86.25;100148.78;5037095;28;20232;-82
2022/10/01 05:10:58;;;;;;;8.30;6.10;;;;;;;8.93;85.84;100151.34;5033744;28;20060;-83
2022/10/01 05:13:28;;;;;;;8.57;6.10;;;;;;;8.88;86.20;100149.81;5029558;28;20050;-83
2022/10/01 05:15:57;;;;;;;7.65;6.03;;;;;;;8.86;86.62;100142.97;5030245;28;20128;-84
2022/10/01 05:18:25;;;;;;;9.80;6.30;;;;;;;8.90;86.27;100148.88;5031563;28;20067;-83
2022/10/01 05:20:52;;;;;;;10.05;6.63;;;;;;;8.90;86.49;100148.88;5016865;28;20045;-84
2022/10/01 05:23:23;;;;;;;9.48;6.10;;;;;;;8.92;86.55;100149.66;5031987;28;20092;-84
2022/10/01 05:25:50;;;;;;;8.63;6.13;;;;;;;8.93;85.70;100149.56;5033123;28;20053;-83
2022/10/01 05:28:18;;;;;;;9.30;6.05;;;;;;;8.90;86.04;100141.00;5035489;28;20343;-83
2022/10/01 05:30:49;;;;;;;7.53;6.35;;;;;;;8.86;86.60;100140.34;5053222;28;20064;-84
2022/10/01 05:33:34;;;;;;;9.43;5.77;;;;;;;8.88;86.34;100139.31;5039563;28;20069;-84
2022/10/01 05:36:05;;;;;;;10.20;5.93;;;;;;;8.90;86.96;100141.00;5043739;28;20069;-82
2022/10/01 05:38:35;;;;;;;9.60;6.60;;;;;;;8.91;86.37;100138.28;5041928;28;20053;-83
2022/10/01 05:41:03;;;;;;;7.57;5.95;;;;;;;8.92;85.80;100140.00;5024318;28;20124;-81
2022/10/01 05:43:31;;;;;;;8.73;6.30;;;;;;;8.94;86.19;100134.63;5022742;28;20155;-83
2022/10/01 05:46:00;;;;;;;10.98;6.22;;;;;;;8.92;86.44;100128.66;5048295;28;20112;-84
2022/10/01 05:48:28;;;;;;;7.10;5.63;;;;;;;8.91;86.47;100126.94;5040745;28;20065;-84
2022/10/01 05:50:59;;;;;;;9.98;6.72;;;;;;;8.85;86.37;100125.53;5032094;28;20072;-83
2022/10/01 05:53:26;;;;;;;8.38;5.90;;;;;;;8.88;86.63;100118.31;5029714;28;20080;-84
2022/10/01 05:55:54;;;;;;;8.43;5.68;;;;;;;8.96;86.83;100112.63;5025950;28;20053;-86
2022/10/01 05:58:21;;;;;;;8.20;6.47;;;;;;;8.98;86.83;100104.63;5012771;28;20583;-85
2022/10/01 06:00:48;;;;;;;9.32;5.57;;;;;;;8.97;86.31;100106.44;5024922;28;20129;-85
2022/10/01 06:03:15;;;;;;;7.63;5.53;;;;;;;8.99;86.62;100099.28;5036881;28;20056;-84
2022/10/01 06:05:43;;;;;;;9.48;5.97;;;;;;;9.01;86.63;100099.22;5020082;28;20055;-83
2022/10/01 06:08:11;;;;;;;8.52;6.25;;;;;;;9.07;86.12;100088.31;5033655;28;20192;-83
2022/10/01 06:10:38;;;;;;;8.55;5.75;;;;;;;9.08;86.33;100088.22;5037743;28;20049;-85
2022/10/01 06:13:06;;;;;;;7.88;5.45;;;;;;;9.11;86.39;100090.66;5038627;28;20068;-85
2022/10/01 06:15:38;;;;;;;8.75;5.90;;;;;;;9.15;86.06;100083.47;5015962;28;20057;-82
2022/10/01 06:18:13;;;;;;;9.85;6.72;;;;;;;9.15;86.26;100080.00;5003936;28;20075;-85
2022/10/01 06:20:41;;;;;;;8.18;5.57;;;;;;;9.16;86.61;100073.78;5022811;28;20054;-83
2022/10/01 06:23:11;;;;;;;10.10;5.70;;;;;;;9.21;86.24;100072.56;5036088;28;20128;-85
2022/10/01 06:25:40;;;;;;;13.10;5.85;;;;;;;9.22;85.79;100066.38;5016190;28;20046;-85
2022/10/01 06:28:10;;;;;;;7.63;5.30;;;;;;;9.25;86.02;100060.09;5015166;28;20076;-83
2022/10/01 06:30:38;;;;;;;7.50;5.18;;;;;;;9.22;85.70;100068.16;5001412;28;20080;-83
2022/10/01 06:33:08;;;;;;;9.80;5.43;;;;;;;9.26;86.23;100064.41;5030034;28;20057;-83
2022/10/01 06:35:40;;;;;;;6.53;5.43;;;;;;;9.29;85.89;100061.59;5016896;28;20061;-84
2022/10/01 06:38:09;;;;;;;7.07;5.55;;;;;;;9.33;85.89;100049.94;5007481;28;20049;-84
2022/10/01 06:40:42;;;;;;;7.95;5.38;;;;;;;9.31;86.05;100047.41;5014458;28;20076;-85
2022/10/01 06:43:09;;;;;;;6.90;4.95;;;;;;;9.39;85.80;100049.56;5021403;28;20077;-82
2022/10/01 06:45:39;;;;;;;7.20;5.25;;;;;;;9.41;85.76;100047.69;5020880;28;20053;-84
2022/10/01 06:48:07;;;;;;;8.25;5.13;;;;;;;9.40;85.20;100048.59;5009630;28;20060;-84
2022/10/01 06:50:34;;;;;;;8.40;5.25;;;;;;;9.46;85.28;100050.03;5000064;28;20596;-84
2022/10/01 06:53:02;;;;;;;9.68;5.55;;;;;;;9.48;85.46;100051.59;5001190;28;20073;-85
2022/10/01 06:55:32;;;;;;;9.18;5.90;;;;;;;9.50;85.78;100055.00;5017521;28;20064;-84
2022/10/01 06:58:13;;;;;;;10.00;5.60;;;;;;;9.57;85.54;100040.50;5015561;28;20049;-84
2022/10/01 07:00:42;;;;;;;11.05;5.50;;;;;;;9.61;85.18;100038.53;5000413;28;20061;-84
2022/10/01 07:03:16;;;;;;;7.00;5.32;;;;;;;9.57;85.70;100027.38;5011669;28;20170;-84
2022/10/01 07:05:43;;;;;;;8.73;5.60;;;;;;;9.61;85.76;100028.00;5041576;28;20420;-84
2022/10/01 07:08:11;;;;;;;7.07;5.65;;;;;;;9.64;85.89;100022.56;5013521;28;20058;-83
2022/10/01 07:10:40;;;;;;;8.18;5.88;;;;;;;9.64;85.73;100018.16;5052823;28;20045;-82
2022/10/01 07:13:19;;;;;;;5.80;5.20;;;;;;;9.66;85.41;100027.72;4998543;28;20199;-84
2022/10/01 07:15:46;;;;;;;6.97;5.45;;;;;;;9.72;85.04;100015.00;5028125;28;20045;-85
2022/10/01 07:18:15;;;;;;;9.30;6.20;;;;;;;9.72;85.48;100007.13;5025873;28;20057;-82
2022/10/01 07:20:43;;;;;;;6.05;5.00;;;;;;;9.75;85.43;100003.47;5012653;28;20037;-84
2022/10/01 07:23:12;;;;;;;7.22;5.28;;;;;;;9.78;85.08;100004.13;5036688;28;20050;-84
2022/10/01 07:25:39;;;;;;;9.98;5.93;;;;;;;9.81;85.55;99987.28;5033761;28;20105;-84
2022/10/01 07:28:22;;;;;;;9.02;6.10;;;;;;;9.83;85.66;99990.66;5035187;28;20199;-83
2022/10/01 07:30:59;;;;;;;7.28;5.68;;;;;;;9.89;85.30;99985.00;5040809;28;20049;-84
2022/10/01 07:33:27;;;;;;;7.80;5.63;;;;;;;9.88;85.29;99986.78;5041404;28;20071;-84
2022/10/01 07:35:54;;;;;;;6.43;5.20;;;;;;;9.92;85.23;99984.78;5018510;28;20449;-85
2022/10/01 07:38:21;;;;;;;10.32;6.22;;;;;;;9.99;85.04;99975.53;5027293;28;20044;-85
2022/10/01 07:40:53;;;;;;;9.10;6.53;;;;;;;10.03;84.70;99990.16;5021119;28;20456;-85
2022/10/01 07:43:21;;;;;;;7.85;5.55;;;;;;;10.04;85.14;99975.22;5007185;28;20132;-85
2022/10/01 07:45:48;;;;;;;8.38;5.75;;;;;;;10.10;84.66;99975.69;4986046;28;20331;-84
2022/10/01 07:48:16;;;;;;;14.23;6.40;;;;;;;10.14;84.85;99976.31;5024938;28;20043;-86
2022/10/01 07:50:44;;;;;;;10.63;6.40;;;;;;;10.19;85.12;99953.16;5037225;28;20053;-84
2022/10/01 07:53:12;;;;;;;9.30;5.72;;;;;;;10.23;84.91;99961.69;5001521;28;20128;-85
2022/10/01 07:55:39;;;;;;;8.95;6.57;;;;;;;10.28;84.52;99962.25;5020235;28;20057;-83
2022/10/01 07:58:06;;;;;;;9.40;6.00;;;;;;;10.31;84.45;99957.63;5038863;28;20049;-84
2022/10/01 08:00:34;;;;;;;9.00;6.28;;;;;;;10.37;84.08;99964.25;5018614;28;20371;-84
2022/10/01 08:03:01;;;;;;;11.02;6.53;;;;;;;10.42;84.04;99954.25;5047374;28;20045;-84
2022/10/01 08:05:33;;;;;;;10.52;6.13;;;;;;;10.44;83.77;99944.47;5046295;28;20056;-83
2022/10/01 08:08:07;;;;;;;7.90;6.20;;;;;;;10.48;83.79;99929.31;5024608;28;20409;-85
2022/10/01 08:10:36;;;;;;;9.40;5.47;;;;;;;10.51;83.88;99934.38;4999072;28;20058;-83
2022/10/01 08:13:14;;;;;;;7.00;5.95;;;;;;;10.57;83.80;99937.41;4997442;28;20041;-85
2022/10/01 08:15:55;;;;;;;7.97;5.75;;;;;;;10.61;83.64;99930.97;5031222;28;20050;-85
2022/10/01 08:18:23;;;;;;;7.07;5.60;;;;;;;10.64;83.51;99936.03;4998912;28;20133;-84
2022/10/01 08:20:51;;;;;;;7.65;5.47;;;;;;;10.69;83.54;99924.34;5037817;28;20072;-83
2022/10/01 08:23:18;;;;;;;8.13;5.43;;;;;;;10.73;83.34;99921.38;5033107;28;20066;-83
2022/10/01 08:25:46;;;;;;;8.00;5.95;;;;;;;10.71;83.39;99919.78;5017474;28;20115;-82
2022/10/01 08:28:15;;;;;;;7.57;4.95;;;;;;;10.72;83.61;99913.59;5016479;28;20041;-83
2022/10/01 08:30:42;;;;;;;8.80;5.60;;;;;;;10.74;83.36;99924.84;5032529;28;20053;-83
2022/10/01 08:33:11;;;;;;;11.02;5.32;;;;;;;10.74;83.63;99901.16;5031979;28;20057;-83
2022/10/01 08:35:39;;;;;;;8.55;5.38;;;;;;;10.80;83.45;99911.25;5013995;28;20586;-83
2022/10/01 08:38:06;;;;;;;8.73;5.70;;;;;;;10.89;83.18;99905.31;5034166;28;20041;-84
2022/10/01 08:40:37;;;;;;;12.65;5.72;;;;;;;10.92;82.48;99915.63;5015051;28;20045;-83
2022/10/01 08:43:35;;;;;;;10.40;5.18;;;;;;;10.96;82.49;99919.75;5028903;28;20053;-81
2022/10/01 08:46:12;;;;;;;8.90;5.72;;;;;;;10.94;82.83;99900.56;5030395;28;20052;-81
2022/10/01 08:49:14;;;;;;;9.68;5.60;;;;;;;10.96;82.98;99906.56;5032170;28;20161;-82
2022/10/01 08:51:49;;;;;;;11.93;6.22;;;;;;;10.99;83.27;99901.09;5015867;28;20128;-83
2022/10/01 08:54:19;;;;;;;;;;;;;;;10.95;83.30;99891.72;5005336;28;20194;-83
2022/10/01 08:56:54;;;;;;;7.68;5.35;;;;;;;11.06;82.98;99907.59;5027080;28;19960;-83
2022/10/01 08:59:28;;;;;;;10.93;5.82;;;;;;;11.19;82.58;99898.78;5015192;28;20054;-84
2022/10/01 09:01:57;;;;;;;7.95;5.22;;;;;;;11.33;81.75;99885.44;5017390;28;20045;-85
2022/10/01 09:04:26;;;;;;;10.30;5.03;;;;;;;11.42;81.65;99890.03;5036862;28;20102;-84
2022/10/01 09:07:00;;;;;;;8.05;5.75;;;;;;;11.39;81.60;99877.06;5031047;28;20160;-83
2022/10/01 09:09:58;;;;;;;6.47;5.05;;;;;;;11.43;81.23;99865.34;5030648;28;20135;-84
2022/10/01 09:13:06;;;;;;;7.53;4.90;;;;;;;11.55;80.46;99863.59;5028693;28;20151;-84
2022/10/01 09:16:01;;;;;;;7.93;5.00;;;;;;;11.66;80.27;99861.00;4997762;28;20052;-85
2022/10/01 09:19:05;;;;;;;6.60;4.38;;;;;;;11.77;79.28;99858.41;5029711;28;20129;-84
2022/10/01 09:21:40;;;;;;;8.35;4.20;;;;;;;11.77;79.45;99849.66;5012019;28;20050;-84
2022/10/01 09:24:16;;;;;;;8.10;5.45;;;;;;;11.85;78.83;99847.31;5015561;28;20416;-84
2022/10/01 09:26:47;;;;;;;4.47;4.07;;;;;;;11.91;78.07;99841.53;5012367;28;20057;-83
2022/10/01 09:29:27;;;;;;;5.72;4.55;;;;;;;12.02;77.61;99838.06;5004173;28;20140;-83
2022/10/01 09:31:55;;;;;;;8.70;4.22;;;;;;;12.08;77.12;99832.34;5037072;28;20041;-84
2022/10/01 09:34:31;;;;;;;8.20;4.30;;;;;;;12.15;76.93;99822.97;5035737;28;20175;-83
2022/10/01 09:37:19;;;;;;;6.75;3.63;;;;;;;12.25;76.66;99829.22;5018117;28;20205;-82
2022/10/01 09:40:11;;;;;;;5.22;3.65;;;;;;;12.32;76.75;99825.13;5031460;28;20281;-83
2022/10/01 09:42:39;;;;;;;7.35;3.20;;;;;;;12.34;76.30;99820.59;5043625;28;20068;-84
2022/10/01 09:45:10;;;;;;;7.00;3.65;;;;;;;12.45;77.09;99813.59;5027317;28;20064;-83
2022/10/01 09:47:42;;;;;;;6.88;3.85;;;;;;;12.50;76.38;99824.63;4998767;28;20136;-82
2022/10/01 09:50:26;;;;;;;4.45;3.20;;;;;;;12.50;75.54;99803.50;5000897;28;20073;-82
2022/10/01 09:52:55;;;;;;;3.60;2.42;;;;;;;12.45;75.57;99803.88;5023099;28;20084;-81
2022/10/01 09:55:33;;;;;;;4.13;2.30;;;;;;;12.45;75.89;99808.31;5031074;28;20315;-82
2022/10/01 09:58:06;;;;;;;4.65;3.03;;;;;;;12.42;76.06;99797.03;5026159;28;20064;-82
2022/10/01 10:00:35;;;;;;;4.28;2.35;;;;;;;12.41;75.76;99797.16;5009586;28;20189;-82
2022/10/01 10:03:03;;;;;;;5.93;1.95;;;;;;;12.42;75.74;99797.03;5037298;28;20057;-82
2022/10/01 10:05:45;;;;;;;3.83;2.10;;;;;;;12.38;76.34;99786.84;5012614;28;20055;-83
2022/10/01 10:08:35;;;;;;;2.72;1.98;;;;;;;12.28;77.28;99794.66;5019580;28;20062;-83
2022/10/01 10:11:05;;;;;;;4.82;2.53;;;;;;;12.26;77.64;99782.56;5000911;28;20067;-82
2022/10/01 10:13:40;;;;;;;3.78;1.98;;;;;;;12.26;78.01;99785.19;5031715;28;20504;-84
2022/10/01 10:16:26;;;;;;;4.00;2.28;;;;;;;12.08;79.67;99776.94;5032678;28;20052;-83
2022/10/01 10:19:09;;;;;;;3.25;2.17;;;;;;;11.99;80.49;99796.97;5025890;28;20523;-84
2022/10/01 10:21:37;;;;;;;2.22;2.00;;;;;;;11.95;81.42;99777.06;5028797;28;20061;-84
2022/10/01 10:24:25;;;;;;;6.07;2.88;;;;;;;11.91;83.07;99796.72;5030320;28;20095;-82
2022/10/01 10:26:55;;;;;;;6.47;2.75;;;;;;;11.81;84.14;99772.81;4995125;28;20041;-84
2022/10/01 10:29:31;;;;;;;6.65;2.72;;;;;;;11.75;85.60;99780.34;5013177;28;20125;-83
2022/10/01 10:32:03;;;;;;;3.60;2.50;;;;;;;11.74;85.68;99778.69;5028241;28;20045;-84
2022/10/01 10:34:37;;;;;;;5.53;3.10;;;;;;;11.80;86.50;99780.88;5009552;28;20053;-83
2022/10/01 10:37:16;;;;;;;5.15;3.05;;;;;;;11.83;86.23;99785.91;5012040;28;20120;-84
2022/10/01 10:39:45;;;;;;;;;;;;;;;11.81;87.59;99779.91;5012909;28;20056;-83
2022/10/01 10:42:17;;;;;;;3.63;2.63;;;;;;;11.73;88.66;99775.22;5030666;28;19927;-82
2022/10/01 10:44:48;;;;;;;5.47;3.45;;;;;;;11.71;89.63;99798.22;5012493;28;20057;-82
2022/10/01 10:47:18;;;;;;;4.57;3.60;;;;;;;11.59;90.33;99776.28;5011966;28;20049;-82
2022/10/01 10:49:59;;;;;;;4.93;3.67;;;;;;;11.62;90.85;99762.03;5021714;28;20114;-83
2022/10/01 10:52:35;;;;;;;5.35;3.50;;;;;;;11.58;91.34;99760.59;5035876;28;20053;-83
2022/10/01 10:55:24;;;;;;;5.05;3.45;;;;;;;11.52;92.96;99759.22;5039245;28;20113;-84
2022/10/01 10:57:51;;;;;;;4.95;4.28;;;;;;;11.47;93.26;99761.38;5021962;28;20037;-83
2022/10/01 11:00:25;;;;;;;4.20;3.72;;;;;;;11.38;94.47;99756.81;5031043;28;20423;-83
2022/10/01 11:03:04;;;;;;;6.05;4.38;;;;;;;11.37;95.70;99755.16;5026181;28;20041;-84
2022/10/01 11:05:32;;;;;;;6.95;3.67;;;;;;;11.34;95.80;99756.19;5023910;28;20149;-84
2022/10/01 11:08:03;;;;;;;6.18;4.22;;;;;;;11.37;96.21;99766.53;5016268;28;20054;-84
2022/10/01 11:10:40;;;;;;;7.40;4.35;;;;;;;11.44;96.06;99755.50;4998696;28;20568;-84
2022/10/01 11:13:31;;;;;;;5.30;3.95;;;;;;;11.44;95.90;99753.72;5030488;28;20054;-84
2022/10/01 11:16:51;;;;;;;5.53;4.00;;;;;;;11.30;97.98;99748.66;5031226;28;20059;-83
2022/10/01 11:19:30;;;;;;;6.88;4.70;;;;;;;11.34;97.15;99750.09;4975137;28;20417;-83
2022/10/01 11:22:32;;;;;;;6.20;4.57;;;;;;;11.17;99.43;99743.50;5043109;28;20042;-83
2022/10/01 11:25:30;;;;;;;6.53;4.43;;;;;;;11.10;99.90;99743.09;5035140;28;20050;-84
2022/10/01 11:28:04;;;;;;;6.00;4.25;;;;;;;11.07;100.00;99743.31;5033618;28;20139;-83
2022/10/01 11:30:40;;;;;;;7.85;4.68;;;;;;;11.02;100.00;99739.34;5011855;28;20140;-84
2022/10/01 11:33:20;;;;;;;7.45;4.47;;;;;;;11.04;100.00;99730.41;5032093;28;20048;-84
2022/10/01 11:36:09;;;;;;;6.43;4.63;;;;;;;10.97;100.00;99721.25;5017229;28;20049;-84
2022/10/01 11:38:47;;;;;;;4.82;3.92;;;;;;;11.05;100.00;99731.22;5035096;28;20084;-83
2022/10/01 11:41:38;;;;;;;6.38;4.32;;;;;;;11.09;100.00;99720.34;5032697;28;20056;-83
2022/10/01 11:44:29;;;;;;;5.93;4.30;;;;;;;11.03;100.00;99726.09;5016579;28;20037;-83
2022/10/01 11:47:09;;;;;;;5.55;4.18;;;;;;;11.10;100.00;99719.38;5035532;28;20499;-84
2022/10/01 11:50:02;;;;;;;5.32;4.13;;;;;;;11.11;100.00;99720.22;5018403;28;20527;-83
2022/10/01 11:52:53;;;;;;;7.78;4.38;;;;;;;11.16;100.00;99718.09;5000202;28;20038;-84
2022/10/01 11:58:50;;;;;;;5.85;3.78;;;;;;;11.15;100.00;99730.41;5028309;28;20037;-83
2022/10/01 12:01:27;;;;;;;6.40;4.05;;;;;;;11.06;100.00;99736.38;5035857;28;20049;-84